createdAt,value
2023-02-13T00:00:25.058Z,50.852707
2023-02-13T00:01:25.061Z,50.852707
2023-02-13T00:02:25.165Z,50.852707
2023-02-13T00:03:25.117Z,50.852707
2023-02-13T00:04:25.047Z,50.852852
2023-02-13T00:05:25.051Z,50.852684
2023-02-13T00:06:25.048Z,50.852684
2023-02-13T00:07:25.052Z,50.852684
2023-02-13T00:08:25.020Z,50.852802
2023-02-13T00:09:25.015Z,50.852787
2023-02-13T00:10:25.063Z,50.852753
2023-02-13T00:11:24.993Z,50.852741
2023-02-13T00:12:25.042Z,50.852768
2023-02-13T00:13:24.979Z,50.852776
2023-02-13T00:14:24.985Z,50.852833
2023-02-13T00:15:24.988Z,50.852913
2023-02-13T00:16:24.976Z,50.852806
2023-02-13T00:17:24.983Z,50.852848
2023-02-13T00:18:24.967Z,50.852791
2023-02-13T00:19:24.956Z,50.852753
2023-02-13T00:20:24.979Z,50.852829
2023-02-13T00:21:24.960Z,50.852818
2023-02-13T00:22:24.935Z,50.852676
2023-02-13T00:23:24.930Z,50.852871
2023-02-13T00:24:24.944Z,50.852859
2023-02-13T00:25:24.917Z,50.852859
2023-02-13T00:26:24.915Z,50.852810
2023-02-13T00:27:24.941Z,50.852879
2023-02-13T00:28:24.960Z,50.852879
2023-02-13T00:29:24.896Z,50.852715
2023-02-13T00:30:24.885Z,50.852745
2023-02-13T00:31:25.028Z,50.852745
2023-02-13T00:32:24.897Z,50.852745
2023-02-13T00:33:24.891Z,50.852745
2023-02-13T00:34:24.879Z,50.852745
2023-02-13T00:35:24.868Z,50.852745
2023-02-13T00:36:24.869Z,50.852745
2023-02-13T00:37:24.851Z,50.852745
2023-02-13T00:38:24.853Z,50.852745
2023-02-13T00:39:24.890Z,50.852745
2023-02-13T00:40:24.835Z,50.852745
2023-02-13T00:41:24.836Z,50.852745
2023-02-13T00:42:24.820Z,50.852745
2023-02-13T00:43:24.832Z,50.852745
2023-02-13T00:44:24.811Z,50.852745
2023-02-13T00:45:24.848Z,50.852745
2023-02-13T00:46:24.856Z,50.852745
2023-02-13T00:47:24.795Z,50.852745
2023-02-13T00:48:24.785Z,50.852745
2023-02-13T00:49:24.807Z,50.852745
2023-02-13T00:50:24.790Z,50.852745
2023-02-13T00:51:24.773Z,50.852745
2023-02-13T00:52:24.770Z,50.852745
2023-02-13T00:53:24.785Z,50.852745
2023-02-13T00:54:24.755Z,50.852745
2023-02-13T00:55:24.790Z,50.852745
2023-02-13T00:56:24.739Z,50.852745
2023-02-13T00:57:24.752Z,50.852745
2023-02-13T00:58:24.802Z,50.852745
2023-02-13T00:59:24.736Z,50.852745
2023-02-13T01:00:24.720Z,50.852745
2023-02-13T01:01:24.779Z,50.852745
2023-02-13T01:02:24.720Z,50.852745
2023-02-13T01:03:24.767Z,50.852745
2023-02-13T01:04:24.708Z,50.852745
2023-02-13T01:05:24.717Z,50.852745
2023-02-13T01:06:24.699Z,50.852745
2023-02-13T01:07:24.702Z,50.852745
2023-02-13T01:08:24.678Z,50.852745
2023-02-13T01:09:24.672Z,50.852745
2023-02-13T01:10:24.720Z,50.852745
2023-02-13T01:11:24.656Z,50.852745
2023-02-13T01:12:24.664Z,50.852745
2023-02-13T01:13:24.648Z,50.852745
2023-02-13T01:14:24.663Z,50.852745
2023-02-13T01:15:24.652Z,50.852745
2023-02-13T01:16:24.871Z,50.852745
2023-02-13T01:17:24.651Z,50.852745
2023-02-13T01:18:24.621Z,50.852745
2023-02-13T01:19:24.627Z,50.852745
2023-02-13T01:20:24.648Z,50.852745
2023-02-13T01:21:24.644Z,50.852745
2023-02-13T01:22:24.604Z,50.852745
2023-02-13T01:23:24.606Z,50.852745
2023-02-13T01:24:24.597Z,50.852745
2023-02-13T01:25:24.585Z,50.852745
2023-02-13T01:26:24.580Z,50.852745
2023-02-13T01:27:24.606Z,50.852745
2023-02-13T01:28:24.658Z,50.852745
2023-02-13T01:29:24.590Z,50.852745
2023-02-13T01:30:24.580Z,50.852745
2023-02-13T01:31:24.675Z,50.852745
2023-02-13T01:32:24.564Z,50.852745
2023-02-13T01:33:24.589Z,50.852745
2023-02-13T01:34:24.537Z,50.852745
2023-02-13T01:35:24.537Z,50.852745
2023-02-13T01:36:24.530Z,50.852745
2023-02-13T01:37:24.523Z,50.852745
2023-02-13T01:38:24.538Z,50.852745
2023-02-13T01:39:24.534Z,50.852745
2023-02-13T01:40:24.494Z,50.852745
2023-02-13T01:41:24.529Z,50.852745
2023-02-13T01:42:24.483Z,50.852745
2023-02-13T01:43:24.477Z,50.852745
2023-02-13T01:44:24.504Z,50.852745
2023-02-13T01:45:24.467Z,50.852745
2023-02-13T01:46:24.536Z,50.852745
2023-02-13T01:47:24.474Z,50.852745
2023-02-13T01:48:24.471Z,50.852745
2023-02-13T01:49:24.461Z,50.852745
2023-02-13T01:50:24.459Z,50.852745
2023-02-13T01:51:24.461Z,50.852745
2023-02-13T01:52:24.443Z,50.852745
2023-02-13T01:53:24.450Z,50.852745
2023-02-13T01:54:24.421Z,50.852745
2023-02-13T01:55:24.417Z,50.852745
2023-02-13T01:56:24.420Z,50.852745
2023-02-13T01:57:24.421Z,50.852745
2023-02-13T01:58:24.421Z,50.852745
2023-02-13T01:59:24.384Z,50.852745
2023-02-13T02:00:24.414Z,50.852745
2023-02-13T02:01:24.481Z,50.852745
2023-02-13T02:02:24.528Z,50.852745
2023-02-13T02:03:24.391Z,50.852745
2023-02-13T02:04:24.380Z,50.852745
2023-02-13T02:05:24.387Z,50.852745
2023-02-13T02:06:24.379Z,50.852745
2023-02-13T02:07:24.361Z,50.852745
2023-02-13T02:08:24.372Z,50.852745
2023-02-13T02:09:24.359Z,50.852745
2023-02-13T02:10:24.340Z,50.852745
2023-02-13T02:11:24.324Z,50.852745
2023-02-13T02:12:24.334Z,50.852745
2023-02-13T02:13:24.309Z,50.852745
2023-02-13T02:14:24.335Z,50.852745
2023-02-13T02:15:24.330Z,50.852745
2023-02-13T02:16:24.360Z,50.852745
2023-02-13T02:17:24.288Z,50.852745
2023-02-13T02:18:24.294Z,50.852745
2023-02-13T02:19:24.277Z,50.852745
2023-02-13T02:20:24.279Z,50.852745
2023-02-13T02:21:24.288Z,50.852745
2023-02-13T02:22:24.260Z,50.852745
2023-02-13T02:23:24.253Z,50.852745
2023-02-13T02:24:24.255Z,50.852745
2023-02-13T02:25:24.244Z,50.852745
2023-02-13T02:26:24.241Z,50.852745
2023-02-13T02:27:24.243Z,50.852745
2023-02-13T02:28:24.253Z,50.852745
2023-02-13T02:29:24.231Z,50.852745
2023-02-13T02:30:24.269Z,50.852745
2023-02-13T02:31:24.224Z,50.852745
2023-02-13T02:32:24.236Z,50.852745
2023-02-13T02:33:24.202Z,50.852745
2023-02-13T02:34:24.199Z,50.852745
2023-02-13T02:35:24.211Z,50.852745
2023-02-13T02:36:24.209Z,50.852745
2023-02-13T02:37:24.197Z,50.852745
2023-02-13T02:38:24.194Z,50.852745
2023-02-13T02:39:24.172Z,50.852745
2023-02-13T02:40:24.164Z,50.852745
2023-02-13T02:41:24.158Z,50.852745
2023-02-13T02:42:24.169Z,50.852745
2023-02-13T02:43:24.149Z,50.852745
2023-02-13T02:44:24.171Z,50.852745
2023-02-13T02:45:24.134Z,50.852745
2023-02-13T02:46:24.183Z,50.852745
2023-02-13T02:47:24.114Z,50.852745
2023-02-13T02:48:24.116Z,50.852745
2023-02-13T02:49:24.125Z,50.852745
2023-02-13T02:50:24.134Z,50.852745
2023-02-13T02:51:24.100Z,50.852745
2023-02-13T02:52:24.093Z,50.852745
2023-02-13T02:53:24.078Z,50.852745
2023-02-13T02:54:24.083Z,50.852745
2023-02-13T02:55:24.092Z,50.852745
2023-02-13T02:56:24.096Z,50.852745
2023-02-13T02:57:24.058Z,50.852745
2023-02-13T02:58:24.059Z,50.852745
2023-02-13T02:59:24.055Z,50.852745
2023-02-13T03:00:24.067Z,50.852745
2023-02-13T03:01:24.103Z,50.852745
2023-02-13T03:02:24.031Z,50.852745
2023-02-13T03:03:24.040Z,50.852745
2023-02-13T03:04:24.082Z,50.852745
2023-02-13T03:05:24.015Z,50.852745
2023-02-13T03:06:24.013Z,50.852745
2023-02-13T03:07:24.031Z,50.852745
2023-02-13T03:08:23.998Z,50.852745
2023-02-13T03:09:23.992Z,50.852745
2023-02-13T03:10:23.990Z,50.852745
2023-02-13T03:11:24.004Z,50.852745
2023-02-13T03:12:23.965Z,50.852745
2023-02-13T03:13:23.965Z,50.852745
2023-02-13T03:14:23.967Z,50.852745
2023-02-13T03:15:23.973Z,50.852745
2023-02-13T03:16:24.005Z,50.852745
2023-02-13T03:17:23.972Z,50.852745
2023-02-13T03:18:23.969Z,50.852745
2023-02-13T03:19:23.966Z,50.852745
2023-02-13T03:20:23.958Z,50.852745
2023-02-13T03:21:23.959Z,50.852745
2023-02-13T03:22:23.944Z,50.852745
2023-02-13T03:23:23.931Z,50.852745
2023-02-13T03:24:23.940Z,50.852745
2023-02-13T03:25:23.935Z,50.852745
2023-02-13T03:26:23.905Z,50.852745
2023-02-13T03:27:23.897Z,50.852745
2023-02-13T03:28:23.932Z,50.852745
2023-02-13T03:29:23.878Z,50.852745
2023-02-13T03:30:23.941Z,50.852745
2023-02-13T03:31:23.898Z,50.852745
2023-02-13T03:32:23.874Z,50.852745
2023-02-13T03:33:23.863Z,50.852745
2023-02-13T03:34:23.866Z,50.852745
2023-02-13T03:35:23.854Z,50.852745
2023-02-13T03:36:23.874Z,50.852745
2023-02-13T03:37:23.848Z,50.852745
2023-02-13T03:38:23.843Z,50.852695
2023-02-13T03:39:23.832Z,50.852707
2023-02-13T03:40:23.832Z,50.852680
2023-02-13T03:41:23.819Z,50.852798
2023-02-13T03:42:23.848Z,50.852730
2023-02-13T03:43:23.801Z,50.852757
2023-02-13T03:44:23.806Z,50.852859
2023-02-13T03:45:23.791Z,50.852917
2023-02-13T03:46:23.797Z,50.852840
2023-02-13T03:47:23.792Z,50.852783
2023-02-13T03:48:23.809Z,50.852695
2023-02-13T03:49:23.774Z,50.852734
2023-02-13T03:50:23.770Z,50.852879
2023-02-13T03:51:23.765Z,50.852882
2023-02-13T03:52:23.771Z,50.852886
2023-02-13T03:53:23.763Z,50.852940
2023-02-13T03:54:23.797Z,50.852886
2023-02-13T03:55:23.742Z,50.852848
2023-02-13T03:56:23.747Z,50.852867
2023-02-13T03:57:23.743Z,50.852825
2023-02-13T03:58:23.729Z,50.852787
2023-02-13T03:59:23.714Z,50.852768
2023-02-13T04:00:23.733Z,50.852703
2023-02-13T04:01:23.762Z,50.852837
2023-02-13T04:02:23.740Z,50.852844
2023-02-13T04:03:23.696Z,50.852844
2023-02-13T04:04:23.693Z,50.852844
2023-02-13T04:05:23.712Z,50.852844
2023-02-13T04:06:23.683Z,50.852844
2023-02-13T04:07:23.677Z,50.852844
2023-02-13T04:08:23.665Z,50.852844
2023-02-13T04:09:23.659Z,50.852844
2023-02-13T04:10:23.690Z,50.852844
2023-02-13T04:11:23.653Z,50.852844
2023-02-13T04:12:23.675Z,50.852844
2023-02-13T04:13:23.651Z,50.852844
2023-02-13T04:14:23.642Z,50.852844
2023-02-13T04:15:23.635Z,50.852844
2023-02-13T04:16:23.684Z,50.852844
2023-02-13T04:17:23.658Z,50.852844
2023-02-13T04:18:23.627Z,50.852844
2023-02-13T04:19:23.626Z,50.852844
2023-02-13T04:20:23.611Z,50.852844
2023-02-13T04:21:23.600Z,50.852844
2023-02-13T04:22:23.602Z,50.852844
2023-02-13T04:23:23.594Z,50.852844
2023-02-13T04:24:23.588Z,50.852844
2023-02-13T04:25:23.578Z,50.852844
2023-02-13T04:26:23.573Z,50.852863
2023-02-13T04:27:23.560Z,50.852776
2023-02-13T04:28:23.654Z,50.852642
2023-02-13T04:29:23.561Z,50.852890
2023-02-13T04:30:23.609Z,50.852741
2023-02-13T04:31:23.646Z,50.852692
2023-02-13T04:32:23.543Z,50.852661
2023-02-13T04:33:23.535Z,50.852715
2023-02-13T04:34:23.560Z,50.852604
2023-02-13T04:35:23.520Z,50.852737
2023-02-13T04:36:23.528Z,50.852776
2023-02-13T04:37:23.535Z,50.852913
2023-02-13T04:38:23.521Z,50.852711
2023-02-13T04:39:23.501Z,50.852669
2023-02-13T04:40:23.500Z,50.852768
2023-02-13T04:41:23.495Z,50.852722
2023-02-13T04:42:23.519Z,50.852726
2023-02-13T04:43:23.486Z,50.852638
2023-02-13T04:44:23.477Z,50.852879
2023-02-13T04:45:23.469Z,50.853123
2023-02-13T04:46:23.518Z,50.852840
2023-02-13T04:47:23.474Z,50.852688
2023-02-13T04:48:23.520Z,50.852798
2023-02-13T04:49:23.447Z,50.852726
2023-02-13T04:50:23.458Z,50.852844
2023-02-13T04:51:23.445Z,50.852718
2023-02-13T04:52:23.438Z,50.852844
2023-02-13T04:53:23.420Z,50.852768
2023-02-13T04:54:23.457Z,50.852661
2023-02-13T04:55:23.419Z,50.852615
2023-02-13T04:56:23.526Z,50.852642
2023-02-13T04:57:23.445Z,50.852795
2023-02-13T04:58:23.408Z,50.852989
2023-02-13T04:59:23.405Z,50.852943
2023-02-13T05:00:23.433Z,50.852818
2023-02-13T05:01:23.435Z,50.852669
2023-02-13T05:02:23.426Z,50.852657
2023-02-13T05:03:23.383Z,50.852909
2023-02-13T05:04:23.445Z,50.852673
2023-02-13T05:05:23.370Z,50.852661
2023-02-13T05:06:23.391Z,50.852913
2023-02-13T05:07:23.412Z,50.852798
2023-02-13T05:08:23.375Z,50.852734
2023-02-13T05:09:23.369Z,50.852940
2023-02-13T05:10:23.354Z,50.852821
2023-02-13T05:11:23.360Z,50.852806
2023-02-13T05:12:23.395Z,50.852818
2023-02-13T05:13:23.324Z,50.852779
2023-02-13T05:14:23.337Z,50.852737
2023-02-13T05:15:23.327Z,50.852734
2023-02-13T05:16:23.315Z,50.852646
2023-02-13T05:17:23.330Z,50.852676
2023-02-13T05:18:23.308Z,50.852760
2023-02-13T05:19:23.304Z,50.852905
2023-02-13T05:20:23.310Z,50.852825
2023-02-13T05:21:23.304Z,50.852749
2023-02-13T05:22:23.306Z,50.852619
2023-02-13T05:23:23.269Z,50.852741
2023-02-13T05:24:23.266Z,50.852650
2023-02-13T05:25:23.295Z,50.852680
2023-02-13T05:26:23.304Z,50.852722
2023-02-13T05:27:23.261Z,50.852680
2023-02-13T05:28:23.299Z,50.852795
2023-02-13T05:29:23.290Z,50.852882
2023-02-13T05:30:23.235Z,50.852818
2023-02-13T05:31:23.319Z,50.852718
2023-02-13T05:32:23.265Z,50.852741
2023-02-13T05:33:23.249Z,50.852753
2023-02-13T05:34:23.223Z,50.852737
2023-02-13T05:35:23.207Z,50.852798
2023-02-13T05:36:23.211Z,50.852768
2023-02-13T05:37:23.192Z,50.852753
2023-02-13T05:38:23.220Z,50.852718
2023-02-13T05:39:23.183Z,50.852772
2023-02-13T05:40:23.204Z,50.852745
2023-02-13T05:41:23.171Z,50.852806
2023-02-13T05:42:23.172Z,50.852776
2023-02-13T05:43:23.168Z,50.852768
2023-02-13T05:44:23.161Z,50.852673
2023-02-13T05:45:23.169Z,50.852730
2023-02-13T05:46:23.207Z,50.852779
2023-02-13T05:47:23.148Z,50.852703
2023-02-13T05:48:23.152Z,50.852673
2023-02-13T05:49:23.139Z,50.852669
2023-02-13T05:50:23.139Z,50.852692
2023-02-13T05:51:23.114Z,50.852726
2023-02-13T05:52:23.166Z,50.852695
2023-02-13T05:53:23.115Z,50.852718
2023-02-13T05:54:23.099Z,50.852787
2023-02-13T05:55:23.093Z,50.852829
2023-02-13T05:56:23.095Z,50.852753
2023-02-13T05:57:23.085Z,50.852596
2023-02-13T05:58:23.115Z,50.852757
2023-02-13T05:59:24.045Z,50.852638
2023-02-13T06:00:23.078Z,50.852818
2023-02-13T06:01:23.063Z,50.852684
2023-02-13T06:02:23.169Z,50.852768
2023-02-13T06:03:23.094Z,50.852928
2023-02-13T06:04:23.093Z,50.853054
2023-02-13T06:05:23.031Z,50.853054
2023-02-13T06:06:23.047Z,50.852859
2023-02-13T06:07:23.033Z,50.852783
2023-02-13T06:08:23.014Z,50.852848
2023-02-13T06:09:23.010Z,50.852840
2023-02-13T06:10:23.031Z,50.852871
2023-02-13T06:11:22.998Z,50.852898
2023-02-13T06:12:23.004Z,50.852818
2023-02-13T06:13:23.012Z,50.852798
2023-02-13T06:14:22.989Z,50.852856
2023-02-13T06:15:23.007Z,50.852783
2023-02-13T06:16:23.016Z,50.852631
2023-02-13T06:17:22.974Z,50.852749
2023-02-13T06:18:22.986Z,50.852669
2023-02-13T06:19:22.961Z,50.852707
2023-02-13T06:20:22.960Z,50.852760
2023-02-13T06:21:22.969Z,50.852810
2023-02-13T06:22:22.980Z,50.852680
2023-02-13T06:23:22.952Z,50.852829
2023-02-13T06:24:22.947Z,50.852673
2023-02-13T06:25:22.925Z,50.852581
2023-02-13T06:26:22.955Z,50.852589
2023-02-13T06:27:22.920Z,50.852402
2023-02-13T06:28:23.002Z,50.852505
2023-02-13T06:29:22.916Z,50.852493
2023-02-13T06:30:23.004Z,50.852577
2023-02-13T06:31:23.007Z,50.852676
2023-02-13T06:32:22.933Z,50.852699
2023-02-13T06:33:22.909Z,50.852680
2023-02-13T06:34:22.889Z,50.852730
2023-02-13T06:35:22.885Z,50.852734
2023-02-13T06:36:22.870Z,50.852802
2023-02-13T06:37:22.868Z,50.852726
2023-02-13T06:38:22.891Z,50.852711
2023-02-13T06:39:22.855Z,50.852722
2023-02-13T06:40:22.859Z,50.852703
2023-02-13T06:41:22.849Z,50.852798
2023-02-13T06:42:22.846Z,50.852734
2023-02-13T06:43:22.891Z,50.852734
2023-02-13T06:44:22.831Z,50.852596
2023-02-13T06:45:22.824Z,50.852657
2023-02-13T06:46:22.852Z,50.852890
2023-02-13T06:47:22.832Z,50.852974
2023-02-13T06:48:22.820Z,50.852764
2023-02-13T06:49:22.825Z,50.852661
2023-02-13T06:50:22.843Z,50.852970
2023-02-13T06:51:22.802Z,50.852871
2023-02-13T06:52:22.805Z,50.852825
2023-02-13T06:53:22.796Z,50.852978
2023-02-13T06:54:31.553Z,50.852962
2023-02-13T06:55:23.825Z,50.852962
2023-02-13T06:56:22.796Z,50.852962
2023-02-13T06:57:22.768Z,50.852962
2023-02-13T06:58:22.776Z,50.852962
2023-02-13T06:59:22.780Z,50.852962
2023-02-13T07:00:22.760Z,50.852962
2023-02-13T07:01:22.831Z,50.852962
2023-02-13T07:02:22.803Z,50.852962
2023-02-13T07:03:22.744Z,50.852962
2023-02-13T07:04:22.763Z,50.852962
2023-02-13T07:05:22.722Z,50.852962
2023-02-13T07:06:22.719Z,50.852962
2023-02-13T07:07:22.740Z,50.852962
2023-02-13T07:08:22.711Z,50.852962
2023-02-13T07:09:22.766Z,50.852962
2023-02-13T07:10:22.720Z,50.852962
2023-02-13T07:11:22.688Z,50.852962
2023-02-13T07:12:22.701Z,50.852962
2023-02-13T07:13:22.703Z,50.852962
2023-02-13T07:14:22.674Z,50.852962
2023-02-13T07:15:22.688Z,50.852962
2023-02-13T07:16:22.686Z,50.852962
2023-02-13T07:17:22.677Z,50.852962
2023-02-13T07:18:22.674Z,50.852962
2023-02-13T07:19:22.644Z,50.852962
2023-02-13T07:20:22.700Z,50.852962
2023-02-13T07:21:22.643Z,50.852962
2023-02-13T07:22:22.627Z,50.852962
2023-02-13T07:23:22.624Z,50.852962
2023-02-13T07:24:22.624Z,50.852962
2023-02-13T07:25:22.632Z,50.852962
2023-02-13T07:26:22.611Z,50.852962
2023-02-13T07:27:22.617Z,50.852962
2023-02-13T07:28:22.656Z,50.852962
2023-02-13T07:29:22.596Z,50.852962
2023-02-13T07:30:22.592Z,50.852962
2023-02-13T07:31:22.695Z,50.852962
2023-02-13T07:32:22.574Z,50.852962
2023-02-13T07:33:22.583Z,50.852962
2023-02-13T07:34:22.571Z,50.852962
2023-02-13T07:35:22.566Z,50.852962
2023-02-13T07:36:22.567Z,50.852962
2023-02-13T07:37:22.578Z,50.852962
2023-02-13T07:38:22.557Z,50.852962
2023-02-13T07:39:22.537Z,50.852962
2023-02-13T07:40:22.543Z,50.852962
2023-02-13T07:41:22.531Z,50.852962
2023-02-13T07:42:22.520Z,50.852962
2023-02-13T07:43:22.532Z,50.852962
2023-02-13T07:44:22.520Z,50.852962
2023-02-13T07:45:22.506Z,50.852962
2023-02-13T07:46:22.581Z,50.852962
2023-02-13T07:47:22.505Z,50.852962
2023-02-13T07:48:22.497Z,50.852962
2023-02-13T07:49:22.516Z,50.852962
2023-02-13T07:50:22.487Z,50.852962
2023-02-13T07:51:22.471Z,50.852962
2023-02-13T07:52:22.481Z,50.852962
2023-02-13T07:53:22.458Z,50.852962
2023-02-13T07:54:22.450Z,50.852962
2023-02-13T07:55:22.480Z,50.852962
2023-02-13T07:56:22.444Z,50.852962
2023-02-13T07:57:22.469Z,50.852962
2023-02-13T07:58:22.461Z,50.852962
2023-02-13T07:59:22.420Z,50.852962
2023-02-13T08:00:22.434Z,50.852962
2023-02-13T08:01:22.580Z,50.852962
2023-02-13T08:02:22.422Z,50.852962
2023-02-13T08:03:22.397Z,50.852726
2023-02-13T08:04:23.595Z,50.852726
2023-02-13T08:05:22.384Z,50.852726
2023-02-13T08:06:22.368Z,50.852772
2023-02-13T08:07:22.349Z,50.852791
2023-02-13T08:08:22.416Z,50.852745
2023-02-13T08:09:22.376Z,50.852840
2023-02-13T08:10:22.316Z,50.852787
2023-02-13T08:11:22.320Z,50.852749
2023-02-13T08:12:22.305Z,50.852829
2023-02-13T08:13:22.311Z,50.852776
2023-02-13T08:14:22.282Z,50.852760
2023-02-13T08:15:22.281Z,50.852654
2023-02-13T08:16:22.315Z,50.852917
2023-02-13T08:17:22.258Z,50.852924
2023-02-13T08:18:22.264Z,50.852921
2023-02-13T08:19:22.263Z,50.852894
2023-02-13T08:20:22.274Z,50.852890
2023-02-13T08:21:22.242Z,50.852737
2023-02-13T08:22:22.242Z,50.852787
2023-02-13T08:23:22.292Z,50.853001
2023-02-13T08:24:22.200Z,50.852715
2023-02-13T08:25:22.191Z,50.852760
2023-02-13T08:26:22.323Z,50.852867
2023-02-13T08:27:22.188Z,50.852791
2023-02-13T08:28:22.209Z,50.852894
2023-02-13T08:29:22.152Z,50.852875
2023-02-13T08:30:22.144Z,50.852741
2023-02-13T08:31:22.244Z,50.852688
2023-02-13T08:32:22.205Z,50.852695
2023-02-13T08:33:22.121Z,50.852795
2023-02-13T08:34:22.121Z,50.852665
2023-02-13T08:35:22.106Z,50.852737
2023-02-13T08:36:22.115Z,50.852802
2023-02-13T08:37:22.151Z,50.852776
2023-02-13T08:38:22.090Z,50.852692
2023-02-13T08:39:22.117Z,50.852665
2023-02-13T08:40:24.436Z,50.852726
2023-02-13T08:41:22.056Z,50.852783
2023-02-13T08:42:22.063Z,50.852661
2023-02-13T08:43:22.063Z,50.852718
2023-02-13T08:44:22.049Z,50.852760
2023-02-13T08:45:22.031Z,50.852814
2023-02-13T08:46:22.071Z,50.852818
2023-02-13T08:47:22.013Z,50.852879
2023-02-13T08:48:22.023Z,50.852787
2023-02-13T08:49:22.013Z,50.852741
2023-02-13T08:50:21.990Z,50.852764
2023-02-13T08:51:22.004Z,50.852562
2023-02-13T08:52:21.975Z,50.852551
2023-02-13T08:53:21.974Z,50.852566
2023-02-13T08:54:21.960Z,50.852627
2023-02-13T08:55:21.976Z,50.852654
2023-02-13T08:56:21.945Z,50.852699
2023-02-13T08:57:21.928Z,50.852772
2023-02-13T08:58:21.920Z,50.852745
2023-02-13T08:59:21.930Z,50.852764
2023-02-13T09:00:21.918Z,50.852768
2023-02-13T09:01:21.941Z,50.852776
2023-02-13T09:02:21.935Z,50.852680
2023-02-13T09:03:21.888Z,50.852776
2023-02-13T09:04:21.890Z,50.852680
2023-02-13T09:05:21.876Z,50.852692
2023-02-13T09:06:21.919Z,50.852726
2023-02-13T09:07:21.909Z,50.852680
2023-02-13T09:08:21.853Z,50.852695
2023-02-13T09:09:21.835Z,50.852753
2023-02-13T09:10:21.839Z,50.852783
2023-02-13T09:11:21.839Z,50.852757
2023-02-13T09:12:21.829Z,50.852829
2023-02-13T09:13:21.802Z,50.852749
2023-02-13T09:14:23.763Z,50.852699
2023-02-13T09:15:21.789Z,50.852600
2023-02-13T09:16:21.847Z,50.852680
2023-02-13T09:17:21.779Z,50.852859
2023-02-13T09:18:21.766Z,50.852825
2023-02-13T09:19:21.780Z,50.852848
2023-02-13T09:20:21.782Z,50.852886
2023-02-13T09:21:21.771Z,50.852867
2023-02-13T09:22:21.746Z,50.852772
2023-02-13T09:23:21.736Z,50.852722
2023-02-13T09:24:21.736Z,50.852818
2023-02-13T09:25:21.804Z,50.852764
2023-02-13T09:26:21.747Z,50.852642
2023-02-13T09:27:21.704Z,50.852570
2023-02-13T09:28:21.765Z,50.852589
2023-02-13T09:29:21.691Z,50.852722
2023-02-13T09:30:21.713Z,50.852703
2023-02-13T09:31:21.783Z,50.852715
2023-02-13T09:32:21.694Z,50.852779
2023-02-13T09:33:21.666Z,50.852776
2023-02-13T09:34:21.660Z,50.852848
2023-02-13T09:35:21.671Z,50.852890
2023-02-13T09:36:21.678Z,50.852764
2023-02-13T09:37:21.640Z,50.852764
2023-02-13T09:38:21.658Z,50.852715
2023-02-13T09:39:21.636Z,50.852764
2023-02-13T09:40:21.620Z,50.852924
2023-02-13T09:41:21.612Z,50.852814
2023-02-13T09:42:21.617Z,50.852764
2023-02-13T09:43:21.595Z,50.852798
2023-02-13T09:44:21.606Z,50.852856
2023-02-13T09:45:21.580Z,50.852802
2023-02-13T09:46:21.741Z,50.852810
2023-02-13T09:47:21.566Z,50.852650
2023-02-13T09:48:21.573Z,50.852638
2023-02-13T09:49:21.552Z,50.852573
2023-02-13T09:50:21.686Z,50.852783
2023-02-13T09:51:21.541Z,50.852715
2023-02-13T09:52:21.535Z,50.852863
2023-02-13T09:53:21.521Z,50.852932
2023-02-13T09:54:21.522Z,50.852718
2023-02-13T09:55:21.570Z,50.852859
2023-02-13T09:56:21.500Z,50.852741
2023-02-13T09:57:21.493Z,50.852673
2023-02-13T09:58:21.484Z,50.852802
2023-02-13T09:59:21.486Z,50.852898
2023-02-13T10:00:21.586Z,50.852886
2023-02-13T10:01:21.572Z,50.852848
2023-02-13T10:02:21.477Z,50.852821
2023-02-13T10:03:21.464Z,50.852730
2023-02-13T10:04:21.447Z,50.852768
2023-02-13T10:05:21.469Z,50.852848
2023-02-13T10:06:21.441Z,50.852638
2023-02-13T10:07:21.446Z,50.852859
2023-02-13T10:08:21.440Z,50.852589
2023-02-13T10:09:21.426Z,50.852730
2023-02-13T10:10:21.447Z,50.852692
2023-02-13T10:11:21.402Z,50.852673
2023-02-13T10:12:21.388Z,50.852726
2023-02-13T10:13:22.124Z,50.852715
2023-02-13T10:14:21.376Z,50.852753
2023-02-13T10:15:21.369Z,50.852764
2023-02-13T10:16:21.424Z,50.852730
2023-02-13T10:17:21.357Z,50.852654
2023-02-13T10:18:21.401Z,50.852764
2023-02-13T10:19:21.340Z,50.852776
2023-02-13T10:20:21.353Z,50.852654
2023-02-13T10:21:21.332Z,50.852825
2023-02-13T10:22:21.313Z,50.852692
2023-02-13T10:23:21.321Z,50.852749
2023-02-13T10:24:21.311Z,50.852821
2023-02-13T10:25:21.305Z,50.852779
2023-02-13T10:26:21.310Z,50.852707
2023-02-13T10:27:21.282Z,50.852699
2023-02-13T10:28:21.310Z,50.852711
2023-02-13T10:29:21.264Z,50.852814
2023-02-13T10:30:21.275Z,50.852562
2023-02-13T10:31:21.375Z,50.852142
2023-02-13T10:32:21.430Z,50.852936
2023-02-13T10:33:21.257Z,50.852737
2023-02-13T10:34:21.227Z,50.852654
2023-02-13T10:35:21.226Z,50.852692
2023-02-13T10:36:21.263Z,50.852703
2023-02-13T10:37:21.213Z,50.852692
2023-02-13T10:38:21.207Z,50.852554
2023-02-13T10:39:21.191Z,50.852718
2023-02-13T10:40:21.199Z,50.852722
2023-02-13T10:41:21.178Z,50.852783
2023-02-13T10:42:21.189Z,50.852692
2023-02-13T10:43:21.165Z,50.852821
2023-02-13T10:44:21.153Z,50.852978
2023-02-13T10:45:21.148Z,50.852852
2023-02-13T10:46:21.193Z,50.852757
2023-02-13T10:47:21.135Z,50.852741
2023-02-13T10:48:21.126Z,50.852753
2023-02-13T10:49:21.168Z,50.852764
2023-02-13T10:50:21.131Z,50.852760
2023-02-13T10:51:21.097Z,50.852730
2023-02-13T10:52:21.089Z,50.852760
2023-02-13T10:53:21.099Z,50.852814
2023-02-13T10:54:21.090Z,50.852760
2023-02-13T10:55:21.111Z,50.852608
2023-02-13T10:56:21.067Z,50.852676
2023-02-13T10:57:21.067Z,50.852776
2023-02-13T10:58:21.066Z,50.852768
2023-02-13T10:59:21.041Z,50.852768
2023-02-13T11:00:21.050Z,50.852779
2023-02-13T11:01:21.045Z,50.852863
2023-02-13T11:02:21.024Z,50.852943
2023-02-13T11:03:21.025Z,50.852932
2023-02-13T11:04:21.065Z,50.852997
2023-02-13T11:05:20.985Z,50.852829
2023-02-13T11:06:20.988Z,50.852840
2023-02-13T11:07:20.981Z,50.852798
2023-02-13T11:08:20.965Z,50.852882
2023-02-13T11:09:20.979Z,50.852844
2023-02-13T11:10:20.959Z,50.852798
2023-02-13T11:11:20.969Z,50.852760
2023-02-13T11:12:20.955Z,50.852772
2023-02-13T11:13:20.940Z,50.852871
2023-02-13T11:14:20.929Z,50.852829
2023-02-13T11:15:20.904Z,50.852776
2023-02-13T11:16:20.952Z,50.852825
2023-02-13T11:17:20.889Z,50.852856
2023-02-13T11:18:20.919Z,50.852795
2023-02-13T11:19:20.889Z,50.852760
2023-02-13T11:20:20.868Z,50.852890
2023-02-13T11:21:20.874Z,50.852943
2023-02-13T11:22:20.863Z,50.852871
2023-02-13T11:23:20.841Z,50.852810
2023-02-13T11:24:20.847Z,50.852879